首页
METAR-TAF:

METAR-TAF

机场 :

乞力马扎罗山, 坦桑尼亚

纬度: 03-25S, 经度: 037-04E, 海拔: 891米

当前天气观测

该预报发布于36分钟前的18:00 UTC
风速13节,风向
温度 27°C
湿度 45%
气压 1012 hPa
能见度10公里或以上
少量云层高于2800英尺

METAR: HTKJ 031800Z 09013KT 9999 FEW028 27/14 Q1012 NOSIG

时间: 21:36 (18:36 UTC)

预报

该预报发布于7小时和36分钟前的11:00 UTC
预报有效从03日的 12点(UTC)到 04日的 12点(UTC)
风速10节,风向
能见度10公里或以上
散云层高于3300英尺
短暂存在
从 03日的 15点(UTC)到 03日的 20点(UTC)
风速20节,风向

TAF: HTKJ 031100Z 0312/0412 09010KT 9999 SCT033 TEMPO 0315/0320 09020KT

超过4000个机场的气象观测和天气预报(METAR&TAF报告)。

可查询的气象台以黄色和红色小点在地图上表示。

将鼠标移到小点上方,可查看气象台名称。

然后点击查看天气观测和预报。

如需切换地图:点击带黑十字的绿色按钮放大地图;点击带横线的绿色按钮缩小地图;或者点击绿色箭头查看邻近地区的地图。


METAR-TAF: